sensor_id;sensor_type;location;lat;lon;timestamp;pressure;altitude;pressure_sealevel;temperature;humidity
44044;BME280;29709;52.396;16.796;2023-02-16T00:00:28;102503.86;;;1.52;74.96
44044;BME280;29709;52.396;16.796;2023-02-16T00:03:58;102504.82;;;1.51;75.07
44044;BME280;29709;52.396;16.796;2023-02-16T00:07:02;102503.67;;;1.57;76.13
44044;BME280;29709;52.396;16.796;2023-02-16T00:10:05;102515.97;;;1.64;75.11
44044;BME280;29709;52.396;16.796;2023-02-16T00:13:24;102512.20;;;1.68;74.82
44044;BME280;29709;52.396;16.796;2023-02-16T00:16:34;102502.36;;;1.65;74.75
44044;BME280;29709;52.396;16.796;2023-02-16T00:19:41;102508.88;;;1.61;75.21
44044;BME280;29709;52.396;16.796;2023-02-16T00:23:10;102504.41;;;1.60;75.11
44044;BME280;29709;52.396;16.796;2023-02-16T00:26:19;102498.91;;;1.62;76.25
44044;BME280;29709;52.396;16.796;2023-02-16T00:29:29;102497.70;;;1.69;75.34
44044;BME280;29709;52.396;16.796;2023-02-16T00:32:33;102497.55;;;1.72;75.56
44044;BME280;29709;52.396;16.796;2023-02-16T00:35:36;102493.08;;;1.71;75.43
44044;BME280;29709;52.396;16.796;2023-02-16T00:38:39;102482.42;;;1.66;74.86
44044;BME280;29709;52.396;16.796;2023-02-16T00:41:43;102483.38;;;1.65;74.98
44044;BME280;29709;52.396;16.796;2023-02-16T00:45:19;102490.64;;;1.65;75.65
44044;BME280;29709;52.396;16.796;2023-02-16T00:48:24;102486.78;;;1.70;75.18
44044;BME280;29709;52.396;16.796;2023-02-16T00:51:27;102490.37;;;1.71;75.28
44044;BME280;29709;52.396;16.796;2023-02-16T00:54:30;102485.02;;;1.69;74.99
44044;BME280;29709;52.396;16.796;2023-02-16T00:57:38;102475.21;;;1.67;75.85
44044;BME280;29709;52.396;16.796;2023-02-16T01:00:46;102481.51;;;1.67;75.80
44044;BME280;29709;52.396;16.796;2023-02-16T01:03:50;102483.34;;;1.67;75.27
44044;BME280;29709;52.396;16.796;2023-02-16T01:06:53;102466.39;;;1.62;74.81
44044;BME280;29709;52.396;16.796;2023-02-16T01:10:09;102465.59;;;1.60;76.14
44044;BME280;29709;52.396;16.796;2023-02-16T01:13:29;102465.50;;;1.61;75.47
44044;BME280;29709;52.396;16.796;2023-02-16T01:16:40;102460.09;;;1.61;75.09
44044;BME280;29709;52.396;16.796;2023-02-16T01:19:44;102460.31;;;1.57;76.54
44044;BME280;29709;52.396;16.796;2023-02-16T01:23:13;102461.23;;;1.56;75.60
44044;BME280;29709;52.396;16.796;2023-02-16T01:26:18;102451.28;;;1.56;76.43
44044;BME280;29709;52.396;16.796;2023-02-16T01:29:21;102453.64;;;1.64;75.61
44044;BME280;29709;52.396;16.796;2023-02-16T01:32:25;102449.09;;;1.64;76.31
44044;BME280;29709;52.396;16.796;2023-02-16T01:35:31;102452.49;;;1.69;75.49
44044;BME280;29709;52.396;16.796;2023-02-16T01:38:35;102451.70;;;1.67;75.99
44044;BME280;29709;52.396;16.796;2023-02-16T01:41:51;102443.57;;;1.67;75.27
44044;BME280;29709;52.396;16.796;2023-02-16T01:44:57;102431.97;;;1.64;75.81
44044;BME280;29709;52.396;16.796;2023-02-16T01:48:06;102433.61;;;1.68;74.93
44044;BME280;29709;52.396;16.796;2023-02-16T01:57:48;102423.72;;;1.67;75.52
44044;BME280;29709;52.396;16.796;2023-02-16T02:07:42;102415.16;;;1.56;75.18
44044;BME280;29709;52.396;16.796;2023-02-16T02:17:17;102406.23;;;1.54;75.44
44044;BME280;29709;52.396;16.796;2023-02-16T02:24:02;102407.05;;;1.56;74.97
44044;BME280;29709;52.396;16.796;2023-02-16T02:37:03;102411.96;;;1.48;75.10
44044;BME280;29709;52.396;16.796;2023-02-16T02:40:09;102406.62;;;1.46;75.89
44044;BME280;29709;52.396;16.796;2023-02-16T02:43:18;102409.11;;;1.51;74.84
44044;BME280;29709;52.396;16.796;2023-02-16T02:46:26;102416.34;;;1.50;75.11
44044;BME280;29709;52.396;16.796;2023-02-16T02:49:31;102412.84;;;1.48;75.58
44044;BME280;29709;52.396;16.796;2023-02-16T02:53:03;102414.67;;;1.48;75.62
44044;BME280;29709;52.396;16.796;2023-02-16T02:56:09;102407.34;;;1.50;74.82
44044;BME280;29709;52.396;16.796;2023-02-16T02:59:27;102403.15;;;1.42;74.54
44044;BME280;29709;52.396;16.796;2023-02-16T03:02:47;102395.66;;;1.29;75.35
44044;BME280;29709;52.396;16.796;2023-02-16T03:05:56;102400.61;;;1.19;76.24
44044;BME280;29709;52.396;16.796;2023-02-16T03:09:09;102405.15;;;1.19;75.81
44044;BME280;29709;52.396;16.796;2023-02-16T03:12:13;102405.15;;;1.19;76.35
44044;BME280;29709;52.396;16.796;2023-02-16T03:15:29;102409.55;;;1.21;76.40
44044;BME280;29709;52.396;16.796;2023-02-16T03:18:35;102404.82;;;1.26;77.12
44044;BME280;29709;52.396;16.796;2023-02-16T03:21:52;102401.80;;;1.32;76.43
44044;BME280;29709;52.396;16.796;2023-02-16T03:25:07;102407.91;;;1.37;76.40
44044;BME280;29709;52.396;16.796;2023-02-16T03:28:25;102412.45;;;1.37;75.68
44044;BME280;29709;52.396;16.796;2023-02-16T03:31:42;102413.45;;;1.34;76.08
44044;BME280;29709;52.396;16.796;2023-02-16T03:35:11;102424.35;;;1.33;75.99
44044;BME280;29709;52.396;16.796;2023-02-16T03:38:15;102421.46;;;1.37;75.57
44044;BME280;29709;52.396;16.796;2023-02-16T03:41:19;102427.00;;;1.34;76.35
44044;BME280;29709;52.396;16.796;2023-02-16T03:44:23;102408.11;;;1.33;75.31
44044;BME280;29709;52.396;16.796;2023-02-16T03:47:26;102395.73;;;1.27;75.14
44044;BME280;29709;52.396;16.796;2023-02-16T03:50:35;102405.01;;;1.22;75.87
44044;BME280;29709;52.396;16.796;2023-02-16T03:53:38;102405.23;;;1.17;76.01
44044;BME280;29709;52.396;16.796;2023-02-16T03:56:42;102405.15;;;1.19;76.03
44044;BME280;29709;52.396;16.796;2023-02-16T03:59:45;102405.81;;;1.24;76.32
44044;BME280;29709;52.396;16.796;2023-02-16T04:03:15;102407.23;;;1.32;75.73
44044;BME280;29709;52.396;16.796;2023-02-16T04:06:18;102409.92;;;1.32;75.45
44044;BME280;29709;52.396;16.796;2023-02-16T04:09:21;102397.15;;;1.36;75.11
44044;BME280;29709;52.396;16.796;2023-02-16T04:12:25;102401.55;;;1.38;75.06
44044;BME280;29709;52.396;16.796;2023-02-16T04:15:40;102389.94;;;1.35;75.29
44044;BME280;29709;52.396;16.796;2023-02-16T04:18:44;102388.19;;;1.34;75.47
44044;BME280;29709;52.396;16.796;2023-02-16T04:21:47;102387.30;;;1.33;75.10
44044;BME280;29709;52.396;16.796;2023-02-16T04:24:50;102381.82;;;1.35;75.01
44044;BME280;29709;52.396;16.796;2023-02-16T04:28:21;102384.91;;;1.27;74.75
44044;BME280;29709;52.396;16.796;2023-02-16T04:31:24;102373.45;;;1.21;75.49
44044;BME280;29709;52.396;16.796;2023-02-16T04:34:27;102374.41;;;1.20;75.35
44044;BME280;29709;52.396;16.796;2023-02-16T04:37:31;102371.84;;;1.17;75.34
44044;BME280;29709;52.396;16.796;2023-02-16T04:40:34;102378.87;;;1.21;75.16
44044;BME280;29709;52.396;16.796;2023-02-16T04:43:37;102374.15;;;1.26;75.26
44044;BME280;29709;52.396;16.796;2023-02-16T04:46:40;102378.53;;;1.28;74.85
44044;BME280;29709;52.396;16.796;2023-02-16T04:49:44;102368.66;;;1.27;74.76
44044;BME280;29709;52.396;16.796;2023-02-16T04:52:47;102370.68;;;1.22;75.04
44044;BME280;29709;52.396;16.796;2023-02-16T04:55:50;102367.97;;;1.22;75.17
44044;BME280;29709;52.396;16.796;2023-02-16T04:59:22;102360.95;;;1.18;75.45
44044;BME280;29709;52.396;16.796;2023-02-16T05:02:25;102361.82;;;1.19;74.73
44044;BME280;29709;52.396;16.796;2023-02-16T05:05:28;102368.04;;;1.21;74.59
44044;BME280;29709;52.396;16.796;2023-02-16T05:08:33;102369.65;;;1.25;74.37
44044;BME280;29709;52.396;16.796;2023-02-16T05:11:36;102373.19;;;1.27;73.88
44044;BME280;29709;52.396;16.796;2023-02-16T05:14:51;102367.31;;;1.17;74.76
44044;BME280;29709;52.396;16.796;2023-02-16T05:17:54;102370.97;;;1.16;74.39
44044;BME280;29709;52.396;16.796;2023-02-16T05:20:57;102364.95;;;1.09;74.75
44044;BME280;29709;52.396;16.796;2023-02-16T05:24:39;102373.70;;;0.96;75.23
44044;BME280;29709;52.396;16.796;2023-02-16T05:27:42;102369.09;;;0.98;74.93
44044;BME280;29709;52.396;16.796;2023-02-16T05:30:46;102362.88;;;0.96;75.19
44044;BME280;29709;52.396;16.796;2023-02-16T05:33:49;102375.30;;;1.00;74.69
44044;BME280;29709;52.396;16.796;2023-02-16T05:36:52;102375.30;;;1.00;74.47
44044;BME280;29709;52.396;16.796;2023-02-16T05:39:56;102380.46;;;1.06;74.53
44044;BME280;29709;52.396;16.796;2023-02-16T05:43:00;102385.12;;;1.02;74.27
44044;BME280;29709;52.396;16.796;2023-02-16T05:46:07;102377.88;;;1.03;74.24
44044;BME280;29709;52.396;16.796;2023-02-16T05:49:11;102381.52;;;1.02;73.97
44044;BME280;29709;52.396;16.796;2023-02-16T05:52:41;102395.21;;;0.99;73.97
44044;BME280;29709;52.396;16.796;2023-02-16T05:55:44;102382.63;;;0.98;74.09
44044;BME280;29709;52.396;16.796;2023-02-16T05:58:47;102389.05;;;0.95;73.85
44044;BME280;29709;52.396;16.796;2023-02-16T06:01:51;102385.66;;;0.90;74.08
44044;BME280;29709;52.396;16.796;2023-02-16T06:04:54;102383.84;;;0.91;74.04
44044;BME280;29709;52.396;16.796;2023-02-16T06:07:57;102381.05;;;0.92;74.68
44044;BME280;29709;52.396;16.796;2023-02-16T06:11:01;102387.48;;;0.90;74.08
44044;BME280;29709;52.396;16.796;2023-02-16T06:14:09;102385.52;;;0.93;74.61
44044;BME280;29709;52.396;16.796;2023-02-16T06:17:13;102382.63;;;0.98;74.34
44044;BME280;29709;52.396;16.796;2023-02-16T06:20:44;102383.84;;;0.91;74.70
44044;BME280;29709;52.396;16.796;2023-02-16T06:23:47;102380.17;;;0.92;74.69
44044;BME280;29709;52.396;16.796;2023-02-16T06:26:51;102385.52;;;0.93;75.08
44044;BME280;29709;52.396;16.796;2023-02-16T06:29:54;102383.68;;;0.94;75.08
44044;BME280;29709;52.396;16.796;2023-02-16T06:32:57;102383.43;;;1.00;75.06
44044;BME280;29709;52.396;16.796;2023-02-16T06:36:01;102387.89;;;1.01;75.11
44044;BME280;29709;52.396;16.796;2023-02-16T06:39:04;102392.16;;;1.06;75.63
44044;BME280;29709;52.396;16.796;2023-02-16T06:42:07;102387.41;;;1.11;75.47
44044;BME280;29709;52.396;16.796;2023-02-16T06:45:11;102379.02;;;1.18;75.48
44044;BME280;29709;52.396;16.796;2023-02-16T06:48:14;102384.98;;;1.26;75.83
44044;BME280;29709;52.396;16.796;2023-02-16T06:51:45;102376.86;;;1.26;74.57
44044;BME280;29709;52.396;16.796;2023-02-16T06:54:48;102381.39;;;1.25;75.29
44044;BME280;29709;52.396;16.796;2023-02-16T06:57:51;102367.62;;;1.30;75.58
44044;BME280;29709;52.396;16.796;2023-02-16T07:00:54;102363.69;;;1.37;75.65
44044;BME280;29709;52.396;16.796;2023-02-16T07:03:58;102359.80;;;1.42;76.85
44044;BME280;29709;52.396;16.796;2023-02-16T07:07:01;102357.85;;;1.46;76.92
44044;BME280;29709;52.396;16.796;2023-02-16T07:10:06;102351.09;;;1.55;76.20
44044;BME280;29709;52.396;16.796;2023-02-16T07:13:09;102349.85;;;1.62;76.58
44044;BME280;29709;52.396;16.796;2023-02-16T07:16:13;102359.38;;;1.70;76.97
44044;BME280;29709;52.396;16.796;2023-02-16T07:19:17;102362.46;;;1.82;77.13
44044;BME280;29709;52.396;16.796;2023-02-16T07:22:47;102357.40;;;1.93;76.44
44044;BME280;29709;52.396;16.796;2023-02-16T07:25:50;102359.66;;;2.02;77.17
44044;BME280;29709;52.396;16.796;2023-02-16T07:28:54;102359.05;;;2.14;77.52
44044;BME280;29709;52.396;16.796;2023-02-16T07:31:57;102356.59;;;2.27;75.82
44044;BME280;29709;52.396;16.796;2023-02-16T07:35:00;102355.43;;;2.33;76.32
44044;BME280;29709;52.396;16.796;2023-02-16T07:38:04;102362.15;;;2.43;76.07
44044;BME280;29709;52.396;16.796;2023-02-16T07:41:08;102353.67;;;2.49;75.87
44044;BME280;29709;52.396;16.796;2023-02-16T07:44:11;102357.26;;;2.49;75.70
44044;BME280;29709;52.396;16.796;2023-02-16T07:47:15;102359.84;;;2.52;76.69
44044;BME280;29709;52.396;16.796;2023-02-16T07:50:18;102353.69;;;2.66;76.54
44044;BME280;29709;52.396;16.796;2023-02-16T07:53:50;102354.89;;;2.78;76.33
44044;BME280;29709;52.396;16.796;2023-02-16T07:56:53;102364.55;;;2.83;76.15
44044;BME280;29709;52.396;16.796;2023-02-16T07:59:57;102359.75;;;2.88;76.07
44044;BME280;29709;52.396;16.796;2023-02-16T08:03:01;102360.23;;;2.97;76.40
44044;BME280;29709;52.396;16.796;2023-02-16T08:06:05;102349.77;;;3.06;76.16
44044;BME280;29709;52.396;16.796;2023-02-16T08:09:08;102349.18;;;3.17;76.10
44044;BME280;29709;52.396;16.796;2023-02-16T08:12:13;102352.27;;;3.27;76.15
44044;BME280;29709;52.396;16.796;2023-02-16T08:15:16;102346.26;;;3.37;75.87
44044;BME280;29709;52.396;16.796;2023-02-16T08:18:19;102345.98;;;3.42;75.72
44044;BME280;29709;52.396;16.796;2023-02-16T08:21:26;102351.97;;;3.48;76.37
44044;BME280;29709;52.396;16.796;2023-02-16T08:24:55;102361.29;;;3.60;76.26
44044;BME280;29709;52.396;16.796;2023-02-16T08:27:59;102363.22;;;3.74;76.06
44044;BME280;29709;52.396;16.796;2023-02-16T08:31:05;102370.77;;;3.85;75.95
44044;BME280;29709;52.396;16.796;2023-02-16T08:34:09;102364.72;;;3.95;75.42
44044;BME280;29709;52.396;16.796;2023-02-16T08:37:12;102359.73;;;4.03;75.25
44044;BME280;29709;52.396;16.796;2023-02-16T08:40:15;102363.17;;;4.07;74.68
44044;BME280;29709;52.396;16.796;2023-02-16T08:43:20;102361.32;;;4.08;74.95
44044;BME280;29709;52.396;16.796;2023-02-16T08:46:24;102364.45;;;4.16;74.86
44044;BME280;29709;52.396;16.796;2023-02-16T08:49:27;102358.86;;;4.19;74.54
44044;BME280;29709;52.396;16.796;2023-02-16T08:52:57;102367.27;;;4.14;74.46
44044;BME280;29709;52.396;16.796;2023-02-16T08:56:02;102358.58;;;4.23;75.16
44044;BME280;29709;52.396;16.796;2023-02-16T08:59:06;102365.14;;;4.35;74.65
44044;BME280;29709;52.396;16.796;2023-02-16T09:02:10;102357.41;;;4.43;74.40
44044;BME280;29709;52.396;16.796;2023-02-16T09:05:14;102366.01;;;4.51;74.23
44044;BME280;29709;52.396;16.796;2023-02-16T09:08:18;102367.02;;;4.64;74.32
44044;BME280;29709;52.396;16.796;2023-02-16T09:11:22;102376.20;;;4.78;73.98
44044;BME280;29709;52.396;16.796;2023-02-16T09:14:26;102372.44;;;4.80;73.63
44044;BME280;29709;52.396;16.796;2023-02-16T09:17:29;102374.97;;;4.83;73.26
44044;BME280;29709;52.396;16.796;2023-02-16T09:21:09;102383.55;;;4.91;73.38
44044;BME280;29709;52.396;16.796;2023-02-16T09:24:13;102379.98;;;5.05;73.35
44044;BME280;29709;52.396;16.796;2023-02-16T09:27:17;102380.40;;;5.13;72.97
44044;BME280;29709;52.396;16.796;2023-02-16T09:30:22;102383.03;;;5.29;73.24
44044;BME280;29709;52.396;16.796;2023-02-16T09:33:25;102379.26;;;5.46;73.16
44044;BME280;29709;52.396;16.796;2023-02-16T09:36:29;102376.41;;;5.62;72.29
44044;BME280;29709;52.396;16.796;2023-02-16T09:39:33;102382.26;;;5.70;72.06
44044;BME280;29709;52.396;16.796;2023-02-16T09:42:47;102382.85;;;5.75;71.95
44044;BME280;29709;52.396;16.796;2023-02-16T09:46:17;102371.53;;;5.81;71.98
44044;BME280;29709;52.396;16.796;2023-02-16T09:49:36;102369.30;;;5.88;71.46
44044;BME280;29709;52.396;16.796;2023-02-16T09:59:41;102365.50;;;6.04;71.18
44044;BME280;29709;52.396;16.796;2023-02-16T10:02:56;102364.48;;;6.20;70.76
44044;BME280;29709;52.396;16.796;2023-02-16T10:09:20;102356.92;;;6.38;70.78
44044;BME280;29709;52.396;16.796;2023-02-16T10:12:59;102354.75;;;6.43;70.28
44044;BME280;29709;52.396;16.796;2023-02-16T10:16:13;102348.20;;;6.45;69.93
44044;BME280;29709;52.396;16.796;2023-02-16T10:19:23;102355.76;;;6.54;69.72
44044;BME280;29709;52.396;16.796;2023-02-16T10:22:35;102352.84;;;6.57;69.88
44044;BME280;29709;52.396;16.796;2023-02-16T10:29:26;102345.08;;;6.64;69.37
44044;BME280;29709;52.396;16.796;2023-02-16T10:32:34;102340.49;;;6.64;68.95
44044;BME280;29709;52.396;16.796;2023-02-16T10:35:48;102342.48;;;6.75;69.19
44044;BME280;29709;52.396;16.796;2023-02-16T10:38:58;102341.31;;;6.79;68.78
44044;BME280;29709;52.396;16.796;2023-02-16T10:48:36;102340.80;;;7.00;69.05
44044;BME280;29709;52.396;16.796;2023-02-16T10:52:07;102334.46;;;7.12;69.27
44044;BME280;29709;52.396;16.796;2023-02-16T10:55:11;102338.94;;;7.26;68.59
44044;BME280;29709;52.396;16.796;2023-02-16T10:58:39;102328.98;;;7.37;68.41
44044;BME280;29709;52.396;16.796;2023-02-16T11:01:37;102324.27;;;7.52;68.31
44044;BME280;29709;52.396;16.796;2023-02-16T11:04:44;102324.69;;;7.59;67.76
44044;BME280;29709;52.396;16.796;2023-02-16T11:07:56;102325.88;;;7.67;67.96
44044;BME280;29709;52.396;16.796;2023-02-16T11:11:08;102319.38;;;7.81;67.77
44044;BME280;29709;52.396;16.796;2023-02-16T11:14:23;102311.48;;;7.89;67.64
44044;BME280;29709;52.396;16.796;2023-02-16T11:17:26;102302.58;;;7.98;67.64
44044;BME280;29709;52.396;16.796;2023-02-16T11:20:56;102307.73;;;8.03;67.63
44044;BME280;29709;52.396;16.796;2023-02-16T11:24:00;102294.31;;;8.11;67.71
44044;BME280;29709;52.396;16.796;2023-02-16T11:30:35;102296.48;;;8.19;66.78
44044;BME280;29709;52.396;16.796;2023-02-16T11:33:34;102290.49;;;8.14;67.06
44044;BME280;29709;52.396;16.796;2023-02-16T11:36:44;102299.22;;;8.19;67.40
44044;BME280;29709;52.396;16.796;2023-02-16T11:39:54;102294.42;;;8.33;67.28
44044;BME280;29709;52.396;16.796;2023-02-16T11:43:00;102293.05;;;8.52;66.85
44044;BME280;29709;52.396;16.796;2023-02-16T11:46:14;102297.20;;;8.57;66.48
44044;BME280;29709;52.396;16.796;2023-02-16T11:49:28;102293.74;;;8.66;66.36
44044;BME280;29709;52.396;16.796;2023-02-16T11:52:32;102297.61;;;8.75;66.16
44044;BME280;29709;52.396;16.796;2023-02-16T11:56:16;102300.91;;;8.91;66.59
44044;BME280;29709;52.396;16.796;2023-02-16T11:59:20;102298.91;;;8.93;66.16
44044;BME280;29709;52.396;16.796;2023-02-16T12:02:35;102293.20;;;8.96;65.95
44044;BME280;29709;52.396;16.796;2023-02-16T12:09:08;102287.71;;;8.96;66.07
44044;BME280;29709;52.396;16.796;2023-02-16T12:12:17;102277.26;;;9.13;65.90
44044;BME280;29709;52.396;16.796;2023-02-16T12:22:04;102272.78;;;9.34;64.83
44044;BME280;29709;52.396;16.796;2023-02-16T12:28:40;102265.68;;;9.43;64.25
44044;BME280;29709;52.396;16.796;2023-02-16T12:44:53;102258.91;;;9.80;64.13
44044;BME280;29709;52.396;16.796;2023-02-16T12:48:05;102250.77;;;9.90;63.98
44044;BME280;29709;52.396;16.796;2023-02-16T12:51:20;102253.49;;;10.01;63.44
44044;BME280;29709;52.396;16.796;2023-02-16T12:54:31;102255.59;;;9.98;62.84
44044;BME280;29709;52.396;16.796;2023-02-16T12:57:49;102243.24;;;10.03;63.43
44044;BME280;29709;52.396;16.796;2023-02-16T13:01:01;102242.59;;;10.11;63.26
44044;BME280;29709;52.396;16.796;2023-02-16T13:04:16;102237.96;;;10.23;63.25
44044;BME280;29709;52.396;16.796;2023-02-16T13:07:26;102241.90;;;10.30;62.30
44044;BME280;29709;52.396;16.796;2023-02-16T13:10:48;102228.53;;;10.36;63.66
44044;BME280;29709;52.396;16.796;2023-02-16T13:13:48;102219.34;;;10.47;62.82
44044;BME280;29709;52.396;16.796;2023-02-16T13:20:12;102206.96;;;10.53;62.18
44044;BME280;29709;52.396;16.796;2023-02-16T13:30:01;102206.47;;;10.68;61.90
44044;BME280;29709;52.396;16.796;2023-02-16T13:33:21;102198.22;;;10.68;62.26
44044;BME280;29709;52.396;16.796;2023-02-16T13:43:04;102193.95;;;10.76;61.39
44044;BME280;29709;52.396;16.796;2023-02-16T13:46:20;102194.32;;;10.71;61.43
44044;BME280;29709;52.396;16.796;2023-02-16T13:49:32;102199.37;;;10.66;61.69
44044;BME280;29709;52.396;16.796;2023-02-16T13:54:48;102195.89;;;10.64;61.63
44044;BME280;29709;52.396;16.796;2023-02-16T13:58:05;102189.91;;;10.59;61.22
44044;BME280;29709;52.396;16.796;2023-02-16T14:07:37;102183.02;;;10.64;61.96
44044;BME280;29709;52.396;16.796;2023-02-16T14:11:09;102190.39;;;10.64;61.66
44044;BME280;29709;52.396;16.796;2023-02-16T14:17:33;102189.52;;;10.63;61.62
44044;BME280;29709;52.396;16.796;2023-02-16T14:20:36;102187.30;;;10.57;61.87
44044;BME280;29709;52.396;16.796;2023-02-16T14:23:40;102181.46;;;10.51;61.65
44044;BME280;29709;52.396;16.796;2023-02-16T14:30:02;102176.66;;;10.43;62.00
44044;BME280;29709;52.396;16.796;2023-02-16T14:33:17;102181.80;;;10.36;61.70
44044;BME280;29709;52.396;16.796;2023-02-16T14:36:21;102190.57;;;10.30;61.85
44044;BME280;29709;52.396;16.796;2023-02-16T14:39:29;102190.98;;;10.26;62.48
44044;BME280;29709;52.396;16.796;2023-02-16T14:43:02;102193.20;;;10.21;62.18
44044;BME280;29709;52.396;16.796;2023-02-16T14:46:22;102189.86;;;10.17;62.13
44044;BME280;29709;52.396;16.796;2023-02-16T14:52:57;102176.53;;;10.12;62.57
44044;BME280;29709;52.396;16.796;2023-02-16T15:02:34;102175.90;;;10.09;62.74
44044;BME280;29709;52.396;16.796;2023-02-16T15:05:40;102179.80;;;10.06;63.06
44044;BME280;29709;52.396;16.796;2023-02-16T15:09:17;102173.84;;;10.01;63.21
44044;BME280;29709;52.396;16.796;2023-02-16T15:12:26;102165.70;;;10.00;63.31
44044;BME280;29709;52.396;16.796;2023-02-16T15:15:43;102170.72;;;9.95;63.12
44044;BME280;29709;52.396;16.796;2023-02-16T15:18:49;102167.48;;;9.90;63.48
44044;BME280;29709;52.396;16.796;2023-02-16T15:25:20;102162.80;;;9.80;63.81
44044;BME280;29709;52.396;16.796;2023-02-16T15:28:32;102161.70;;;9.72;63.94
44044;BME280;29709;52.396;16.796;2023-02-16T15:31:37;102161.34;;;9.65;64.28
44044;BME280;29709;52.396;16.796;2023-02-16T15:35:12;102168.23;;;9.60;64.47
44044;BME280;29709;52.396;16.796;2023-02-16T15:41:38;102168.73;;;9.53;64.73
44044;BME280;29709;52.396;16.796;2023-02-16T15:44:42;102171.10;;;9.47;64.91
44044;BME280;29709;52.396;16.796;2023-02-16T15:47:46;102172.64;;;9.40;65.28
44044;BME280;29709;52.396;16.796;2023-02-16T15:50:53;102167.77;;;9.32;65.34
44044;BME280;29709;52.396;16.796;2023-02-16T15:54:28;102165.19;;;9.19;65.68
44044;BME280;29709;52.396;16.796;2023-02-16T15:57:35;102158.58;;;9.11;66.04
44044;BME280;29709;52.396;16.796;2023-02-16T16:00:43;102162.80;;;9.04;65.88
44044;BME280;29709;52.396;16.796;2023-02-16T16:03:47;102162.46;;;8.97;66.45
44044;BME280;29709;52.396;16.796;2023-02-16T16:06:51;102157.46;;;8.91;66.44
44044;BME280;29709;52.396;16.796;2023-02-16T16:09:56;102153.32;;;8.85;66.38
44044;BME280;29709;52.396;16.796;2023-02-16T16:13:03;102160.20;;;8.80;66.62
44044;BME280;29709;52.396;16.796;2023-02-16T16:16:08;102156.84;;;8.76;66.69
44044;BME280;29709;52.396;16.796;2023-02-16T16:19:38;102161.32;;;8.66;67.03
44044;BME280;29709;52.396;16.796;2023-02-16T16:22:41;102158.30;;;8.58;67.24
44044;BME280;29709;52.396;16.796;2023-02-16T16:25:46;102156.30;;;8.49;67.72
44044;BME280;29709;52.396;16.796;2023-02-16T16:28:50;102161.25;;;8.44;67.58
44044;BME280;29709;52.396;16.796;2023-02-16T16:31:54;102162.51;;;8.39;67.63
44044;BME280;29709;52.396;16.796;2023-02-16T16:34:57;102162.93;;;8.33;67.83
44044;BME280;29709;52.396;16.796;2023-02-16T16:38:01;102164.18;;;8.29;67.67
44044;BME280;29709;52.396;16.796;2023-02-16T16:41:04;102155.69;;;8.21;67.59
44044;BME280;29709;52.396;16.796;2023-02-16T16:44:27;102153.58;;;8.14;68.01
44044;BME280;29709;52.396;16.796;2023-02-16T16:47:51;102168.97;;;8.03;68.33
44044;BME280;29709;52.396;16.796;2023-02-16T16:54:12;102153.12;;;7.96;68.69
44044;BME280;29709;52.396;16.796;2023-02-16T16:57:19;102151.50;;;7.93;68.55
44044;BME280;29709;52.396;16.796;2023-02-16T17:00:25;102145.86;;;7.84;68.62
44044;BME280;29709;52.396;16.796;2023-02-16T17:03:29;102146.32;;;7.77;68.45
44044;BME280;29709;52.396;16.796;2023-02-16T17:07:00;102153.73;;;7.64;69.05
44044;BME280;29709;52.396;16.796;2023-02-16T17:10:05;102148.70;;;7.58;69.44
44044;BME280;29709;52.396;16.796;2023-02-16T17:13:14;102153.67;;;7.53;69.65
44044;BME280;29709;52.396;16.796;2023-02-16T17:16:22;102154.66;;;7.52;69.95
44044;BME280;29709;52.396;16.796;2023-02-16T17:19:26;102165.48;;;7.53;69.57
44044;BME280;29709;52.396;16.796;2023-02-16T17:22:32;102171.27;;;7.49;69.55
44044;BME280;29709;52.396;16.796;2023-02-16T17:25:35;102163.07;;;7.49;69.64
44044;BME280;29709;52.396;16.796;2023-02-16T17:29:08;102168.02;;;7.44;69.57
44044;BME280;29709;52.396;16.796;2023-02-16T17:32:11;102164.54;;;7.42;68.91
44044;BME280;29709;52.396;16.796;2023-02-16T17:35:14;102157.35;;;7.28;70.02
44044;BME280;29709;52.396;16.796;2023-02-16T17:38:19;102159.01;;;7.18;70.24
44044;BME280;29709;52.396;16.796;2023-02-16T17:41:25;102155.64;;;7.14;69.75
44044;BME280;29709;52.396;16.796;2023-02-16T17:44:29;102165.19;;;7.09;70.63
44044;BME280;29709;52.396;16.796;2023-02-16T17:47:32;102159.36;;;7.13;69.91
44044;BME280;29709;52.396;16.796;2023-02-16T17:50:36;102161.46;;;7.10;69.80
44044;BME280;29709;52.396;16.796;2023-02-16T17:53:39;102156.31;;;7.05;69.94
44044;BME280;29709;52.396;16.796;2023-02-16T17:57:11;102159.52;;;6.99;70.21
44044;BME280;29709;52.396;16.796;2023-02-16T18:00:18;102149.77;;;6.95;70.70
44044;BME280;29709;52.396;16.796;2023-02-16T18:03:22;102158.84;;;6.95;70.48
44044;BME280;29709;52.396;16.796;2023-02-16T18:06:26;102166.05;;;6.97;70.68
44044;BME280;29709;52.396;16.796;2023-02-16T18:09:30;102164.11;;;6.99;70.64
44044;BME280;29709;52.396;16.796;2023-02-16T18:12:33;102161.26;;;7.00;70.48
44044;BME280;29709;52.396;16.796;2023-02-16T18:15:41;102160.27;;;7.01;70.61
44044;BME280;29709;52.396;16.796;2023-02-16T18:18:46;102163.01;;;7.01;70.68
44044;BME280;29709;52.396;16.796;2023-02-16T18:22:17;102163.13;;;7.00;71.36
44044;BME280;29709;52.396;16.796;2023-02-16T18:25:20;102157.54;;;7.01;70.84
44044;BME280;29709;52.396;16.796;2023-02-16T18:28:29;102162.66;;;7.06;71.33
44044;BME280;29709;52.396;16.796;2023-02-16T18:31:36;102157.95;;;7.08;70.84
44044;BME280;29709;52.396;16.796;2023-02-16T18:34:41;102158.81;;;7.08;70.68
44044;BME280;29709;52.396;16.796;2023-02-16T18:37:45;102150.61;;;7.08;70.53
44044;BME280;29709;52.396;16.796;2023-02-16T18:40:50;102148.98;;;7.06;70.73